sensor_id;sensor_type;location;lat;lon;timestamp;P1;durP1;ratioP1;P2;durP2;ratioP2
78646;SDS011;67961;43.460;3.762;2023-03-23T00:01:17;24.45;;;16.92;;
78646;SDS011;67961;43.460;3.762;2023-03-23T00:03:44;24.77;;;15.98;;
78646;SDS011;67961;43.460;3.762;2023-03-23T00:06:12;22.15;;;16.73;;
78646;SDS011;67961;43.460;3.762;2023-03-23T00:08:42;27.77;;;16.83;;
78646;SDS011;67961;43.460;3.762;2023-03-23T00:13:39;21.52;;;15.15;;
78646;SDS011;67961;43.460;3.762;2023-03-23T00:16:06;20.20;;;14.43;;
78646;SDS011;67961;43.460;3.762;2023-03-23T00:18:42;25.05;;;14.48;;
78646;SDS011;67961;43.460;3.762;2023-03-23T00:21:11;19.80;;;14.70;;
78646;SDS011;67961;43.460;3.762;2023-03-23T00:23:37;19.52;;;13.32;;
78646;SDS011;67961;43.460;3.762;2023-03-23T00:26:04;21.63;;;14.82;;
78646;SDS011;67961;43.460;3.762;2023-03-23T00:28:30;20.75;;;13.65;;
78646;SDS011;67961;43.460;3.762;2023-03-23T00:33:32;19.02;;;13.50;;
78646;SDS011;67961;43.460;3.762;2023-03-23T00:36:03;17.77;;;12.98;;
78646;SDS011;67961;43.460;3.762;2023-03-23T00:38:30;18.80;;;11.95;;
78646;SDS011;67961;43.460;3.762;2023-03-23T00:40:56;15.65;;;11.60;;
78646;SDS011;67961;43.460;3.762;2023-03-23T00:43:23;22.48;;;10.88;;
78646;SDS011;67961;43.460;3.762;2023-03-23T00:45:53;15.77;;;10.20;;
78646;SDS011;67961;43.460;3.762;2023-03-23T00:48:24;24.08;;;11.32;;
78646;SDS011;67961;43.460;3.762;2023-03-23T00:50:50;12.40;;;9.13;;
78646;SDS011;67961;43.460;3.762;2023-03-23T00:53:16;15.98;;;8.68;;
78646;SDS011;67961;43.460;3.762;2023-03-23T00:55:43;13.82;;;8.02;;
78646;SDS011;67961;43.460;3.762;2023-03-23T00:58:12;14.35;;;7.18;;
78646;SDS011;67961;43.460;3.762;2023-03-23T01:00:39;14.23;;;7.10;;
78646;SDS011;67961;43.460;3.762;2023-03-23T01:03:09;12.68;;;6.80;;
78646;SDS011;67961;43.460;3.762;2023-03-23T01:05:43;13.50;;;6.35;;
78646;SDS011;67961;43.460;3.762;2023-03-23T01:08:11;15.88;;;5.80;;
78646;SDS011;67961;43.460;3.762;2023-03-23T01:10:39;11.45;;;6.13;;
78646;SDS011;67961;43.460;3.762;2023-03-23T01:13:05;14.95;;;5.68;;
78646;SDS011;67961;43.460;3.762;2023-03-23T01:15:32;11.93;;;5.57;;
78646;SDS011;67961;43.460;3.762;2023-03-23T01:17:58;18.52;;;5.32;;
78646;SDS011;67961;43.460;3.762;2023-03-23T01:20:24;15.15;;;5.95;;
78646;SDS011;67961;43.460;3.762;2023-03-23T01:22:59;16.48;;;6.20;;
78646;SDS011;67961;43.460;3.762;2023-03-23T01:25:29;12.38;;;6.30;;
78646;SDS011;67961;43.460;3.762;2023-03-23T01:27:56;10.32;;;5.97;;
78646;SDS011;67961;43.460;3.762;2023-03-23T01:30:23;11.80;;;5.65;;
78646;SDS011;67961;43.460;3.762;2023-03-23T01:32:50;9.35;;;5.40;;
78646;SDS011;67961;43.460;3.762;2023-03-23T01:35:16;9.77;;;5.28;;
78646;SDS011;67961;43.460;3.762;2023-03-23T01:37:42;10.40;;;5.38;;
78646;SDS011;67961;43.460;3.762;2023-03-23T01:40:08;14.02;;;5.03;;
78646;SDS011;67961;43.460;3.762;2023-03-23T01:42:35;10.77;;;4.68;;
78646;SDS011;67961;43.460;3.762;2023-03-23T01:47:59;11.85;;;4.40;;
78646;SDS011;67961;43.460;3.762;2023-03-23T01:50:26;13.13;;;4.78;;
78646;SDS011;67961;43.460;3.762;2023-03-23T01:52:55;11.68;;;5.00;;
78646;SDS011;67961;43.460;3.762;2023-03-23T01:55:24;9.25;;;5.30;;
78646;SDS011;67961;43.460;3.762;2023-03-23T01:57:53;13.75;;;5.93;;
78646;SDS011;67961;43.460;3.762;2023-03-23T02:00:20;12.90;;;5.05;;
78646;SDS011;67961;43.460;3.762;2023-03-23T02:02:47;7.18;;;4.35;;
78646;SDS011;67961;43.460;3.762;2023-03-23T02:05:18;10.38;;;4.93;;
78646;SDS011;67961;43.460;3.762;2023-03-23T02:08:05;11.93;;;5.60;;
78646;SDS011;67961;43.460;3.762;2023-03-23T02:10:34;9.90;;;4.30;;
78646;SDS011;67961;43.460;3.762;2023-03-23T02:13:01;10.55;;;4.60;;
78646;SDS011;67961;43.460;3.762;2023-03-23T02:15:38;15.73;;;4.03;;
78646;SDS011;67961;43.460;3.762;2023-03-23T02:18:17;9.07;;;5.32;;
78646;SDS011;67961;43.460;3.762;2023-03-23T02:26:25;13.57;;;4.88;;
78646;SDS011;67961;43.460;3.762;2023-03-23T02:37:14;13.05;;;5.28;;
78646;SDS011;67961;43.460;3.762;2023-03-23T02:39:54;18.42;;;6.13;;
78646;SDS011;67961;43.460;3.762;2023-03-23T02:42:32;15.70;;;5.30;;
78646;SDS011;67961;43.460;3.762;2023-03-23T02:45:02;16.55;;;5.63;;
78646;SDS011;67961;43.460;3.762;2023-03-23T02:47:30;10.98;;;5.60;;
78646;SDS011;67961;43.460;3.762;2023-03-23T02:49:58;15.68;;;5.38;;
78646;SDS011;67961;43.460;3.762;2023-03-23T02:52:28;13.15;;;5.05;;
78646;SDS011;67961;43.460;3.762;2023-03-23T02:54:56;10.40;;;4.63;;
78646;SDS011;67961;43.460;3.762;2023-03-23T02:57:24;12.73;;;5.07;;
78646;SDS011;67961;43.460;3.762;2023-03-23T02:59:52;12.25;;;6.00;;
78646;SDS011;67961;43.460;3.762;2023-03-23T03:02:19;11.00;;;4.93;;
78646;SDS011;67961;43.460;3.762;2023-03-23T03:05:01;9.52;;;5.65;;
78646;SDS011;67961;43.460;3.762;2023-03-23T03:18:27;10.00;;;5.90;;
78646;SDS011;67961;43.460;3.762;2023-03-23T03:21:14;13.50;;;5.43;;
78646;SDS011;67961;43.460;3.762;2023-03-23T03:23:45;13.27;;;5.60;;
78646;SDS011;67961;43.460;3.762;2023-03-23T03:26:14;16.60;;;5.97;;
78646;SDS011;67961;43.460;3.762;2023-03-23T03:28:42;16.80;;;5.63;;
78646;SDS011;67961;43.460;3.762;2023-03-23T03:31:12;14.35;;;5.50;;
78646;SDS011;67961;43.460;3.762;2023-03-23T03:33:40;10.98;;;5.32;;
78646;SDS011;67961;43.460;3.762;2023-03-23T03:36:06;18.13;;;6.90;;
78646;SDS011;67961;43.460;3.762;2023-03-23T03:38:42;9.02;;;5.72;;
78646;SDS011;67961;43.460;3.762;2023-03-23T03:41:10;11.25;;;5.80;;
78646;SDS011;67961;43.460;3.762;2023-03-23T03:43:36;10.95;;;5.45;;
78646;SDS011;67961;43.460;3.762;2023-03-23T03:46:02;12.90;;;6.28;;
78646;SDS011;67961;43.460;3.762;2023-03-23T03:48:28;13.10;;;5.63;;
78646;SDS011;67961;43.460;3.762;2023-03-23T03:50:53;14.38;;;5.90;;
78646;SDS011;67961;43.460;3.762;2023-03-23T03:53:22;9.68;;;5.60;;
78646;SDS011;67961;43.460;3.762;2023-03-23T03:55:50;12.02;;;5.75;;
78646;SDS011;67961;43.460;3.762;2023-03-23T03:58:20;22.02;;;10.20;;
78646;SDS011;67961;43.460;3.762;2023-03-23T04:00:46;19.77;;;12.75;;
78646;SDS011;67961;43.460;3.762;2023-03-23T04:03:15;24.90;;;14.50;;
78646;SDS011;67961;43.460;3.762;2023-03-23T04:05:42;21.60;;;14.80;;
78646;SDS011;67961;43.460;3.762;2023-03-23T04:08:09;20.00;;;15.02;;
78646;SDS011;67961;43.460;3.762;2023-03-23T04:10:36;27.83;;;16.00;;
78646;SDS011;67961;43.460;3.762;2023-03-23T04:13:01;22.50;;;14.65;;
78646;SDS011;67961;43.460;3.762;2023-03-23T04:15:29;25.60;;;14.73;;
78646;SDS011;67961;43.460;3.762;2023-03-23T04:17:55;17.67;;;15.75;;
78646;SDS011;67961;43.460;3.762;2023-03-23T04:20:22;24.88;;;15.68;;
78646;SDS011;67961;43.460;3.762;2023-03-23T04:22:48;22.25;;;16.25;;
78646;SDS011;67961;43.460;3.762;2023-03-23T04:25:17;22.77;;;16.40;;
78646;SDS011;67961;43.460;3.762;2023-03-23T04:27:48;23.92;;;16.30;;
78646;SDS011;67961;43.460;3.762;2023-03-23T04:30:18;24.77;;;17.85;;
78646;SDS011;67961;43.460;3.762;2023-03-23T04:32:45;22.08;;;16.17;;
78646;SDS011;67961;43.460;3.762;2023-03-23T04:35:12;23.63;;;16.67;;
78646;SDS011;67961;43.460;3.762;2023-03-23T04:37:41;22.38;;;15.82;;
78646;SDS011;67961;43.460;3.762;2023-03-23T04:40:07;24.48;;;17.25;;
78646;SDS011;67961;43.460;3.762;2023-03-23T04:42:38;21.13;;;17.48;;
78646;SDS011;67961;43.460;3.762;2023-03-23T04:45:11;25.48;;;17.95;;
78646;SDS011;67961;43.460;3.762;2023-03-23T04:47:40;24.00;;;18.00;;
78646;SDS011;67961;43.460;3.762;2023-03-23T04:50:15;30.13;;;17.98;;
78646;SDS011;67961;43.460;3.762;2023-03-23T04:52:42;25.92;;;17.25;;
78646;SDS011;67961;43.460;3.762;2023-03-23T04:55:13;21.33;;;16.73;;
78646;SDS011;67961;43.460;3.762;2023-03-23T04:57:39;21.75;;;17.05;;
78646;SDS011;67961;43.460;3.762;2023-03-23T05:00:09;21.23;;;17.00;;
78646;SDS011;67961;43.460;3.762;2023-03-23T05:02:39;24.70;;;17.42;;
78646;SDS011;67961;43.460;3.762;2023-03-23T05:05:08;24.38;;;17.77;;
78646;SDS011;67961;43.460;3.762;2023-03-23T05:07:39;26.50;;;16.50;;
78646;SDS011;67961;43.460;3.762;2023-03-23T05:10:06;22.30;;;16.23;;
78646;SDS011;67961;43.460;3.762;2023-03-23T05:12:33;28.20;;;17.92;;
78646;SDS011;67961;43.460;3.762;2023-03-23T05:14:59;23.20;;;17.30;;
78646;SDS011;67961;43.460;3.762;2023-03-23T05:17:25;24.38;;;17.00;;
78646;SDS011;67961;43.460;3.762;2023-03-23T05:19:51;24.95;;;16.98;;
78646;SDS011;67961;43.460;3.762;2023-03-23T05:22:17;22.63;;;16.80;;
78646;SDS011;67961;43.460;3.762;2023-03-23T05:24:46;24.85;;;16.73;;
78646;SDS011;67961;43.460;3.762;2023-03-23T05:27:12;25.05;;;17.83;;
78646;SDS011;67961;43.460;3.762;2023-03-23T05:29:39;25.70;;;18.15;;
78646;SDS011;67961;43.460;3.762;2023-03-23T05:32:06;25.35;;;18.15;;
78646;SDS011;67961;43.460;3.762;2023-03-23T05:34:33;24.90;;;17.30;;
78646;SDS011;67961;43.460;3.762;2023-03-23T05:37:02;22.42;;;17.38;;
78646;SDS011;67961;43.460;3.762;2023-03-23T05:39:29;25.90;;;17.55;;
78646;SDS011;67961;43.460;3.762;2023-03-23T05:41:56;24.10;;;17.70;;
78646;SDS011;67961;43.460;3.762;2023-03-23T05:44:22;27.85;;;19.77;;
78646;SDS011;67961;43.460;3.762;2023-03-23T05:46:47;21.77;;;17.88;;
78646;SDS011;67961;43.460;3.762;2023-03-23T05:49:14;27.95;;;17.20;;
78646;SDS011;67961;43.460;3.762;2023-03-23T05:51:46;24.42;;;18.67;;
78646;SDS011;67961;43.460;3.762;2023-03-23T05:54:12;22.67;;;18.17;;
78646;SDS011;67961;43.460;3.762;2023-03-23T05:56:39;24.98;;;18.75;;
78646;SDS011;67961;43.460;3.762;2023-03-23T05:59:05;29.88;;;19.35;;
78646;SDS011;67961;43.460;3.762;2023-03-23T06:01:32;27.15;;;19.75;;
78646;SDS011;67961;43.460;3.762;2023-03-23T06:03:57;23.17;;;18.92;;
78646;SDS011;67961;43.460;3.762;2023-03-23T06:06:27;27.48;;;19.02;;
78646;SDS011;67961;43.460;3.762;2023-03-23T06:08:55;28.10;;;19.98;;
78646;SDS011;67961;43.460;3.762;2023-03-23T06:11:22;27.77;;;20.67;;
78646;SDS011;67961;43.460;3.762;2023-03-23T06:13:49;26.73;;;21.00;;
78646;SDS011;67961;43.460;3.762;2023-03-23T06:16:15;31.08;;;21.85;;
78646;SDS011;67961;43.460;3.762;2023-03-23T06:18:40;27.40;;;20.10;;
78646;SDS011;67961;43.460;3.762;2023-03-23T06:21:07;27.85;;;20.10;;
78646;SDS011;67961;43.460;3.762;2023-03-23T06:23:34;30.17;;;22.45;;
78646;SDS011;67961;43.460;3.762;2023-03-23T06:26:01;30.90;;;20.92;;
78646;SDS011;67961;43.460;3.762;2023-03-23T06:28:30;24.85;;;19.48;;
78646;SDS011;67961;43.460;3.762;2023-03-23T06:30:58;28.63;;;20.98;;
78646;SDS011;67961;43.460;3.762;2023-03-23T06:33:31;28.60;;;21.58;;
78646;SDS011;67961;43.460;3.762;2023-03-23T06:36:01;26.60;;;21.75;;
78646;SDS011;67961;43.460;3.762;2023-03-23T06:38:27;34.10;;;21.10;;
78646;SDS011;67961;43.460;3.762;2023-03-23T06:40:53;28.10;;;22.10;;
78646;SDS011;67961;43.460;3.762;2023-03-23T06:43:20;28.80;;;20.83;;
78646;SDS011;67961;43.460;3.762;2023-03-23T06:45:46;29.13;;;21.52;;
78646;SDS011;67961;43.460;3.762;2023-03-23T06:48:12;33.55;;;21.55;;
78646;SDS011;67961;43.460;3.762;2023-03-23T06:50:38;32.80;;;22.65;;
78646;SDS011;67961;43.460;3.762;2023-03-23T06:53:07;28.60;;;23.35;;
78646;SDS011;67961;43.460;3.762;2023-03-23T06:55:33;30.30;;;21.50;;
78646;SDS011;67961;43.460;3.762;2023-03-23T06:57:58;27.58;;;22.42;;
78646;SDS011;67961;43.460;3.762;2023-03-23T07:00:26;28.92;;;21.13;;
78646;SDS011;67961;43.460;3.762;2023-03-23T07:02:52;28.80;;;21.67;;
78646;SDS011;67961;43.460;3.762;2023-03-23T07:05:18;26.27;;;21.42;;
78646;SDS011;67961;43.460;3.762;2023-03-23T07:07:44;26.17;;;20.75;;
78646;SDS011;67961;43.460;3.762;2023-03-23T07:10:11;27.83;;;20.83;;
78646;SDS011;67961;43.460;3.762;2023-03-23T07:12:37;27.30;;;20.35;;
78646;SDS011;67961;43.460;3.762;2023-03-23T07:15:03;30.60;;;21.27;;
78646;SDS011;67961;43.460;3.762;2023-03-23T07:17:30;27.92;;;22.08;;
78646;SDS011;67961;43.460;3.762;2023-03-23T07:19:56;26.52;;;19.50;;
78646;SDS011;67961;43.460;3.762;2023-03-23T07:22:22;33.17;;;20.20;;
78646;SDS011;67961;43.460;3.762;2023-03-23T07:24:48;28.02;;;19.55;;
78646;SDS011;67961;43.460;3.762;2023-03-23T07:27:13;24.98;;;18.23;;
78646;SDS011;67961;43.460;3.762;2023-03-23T07:29:40;25.92;;;19.08;;
78646;SDS011;67961;43.460;3.762;2023-03-23T07:32:06;24.15;;;18.92;;
78646;SDS011;67961;43.460;3.762;2023-03-23T07:34:35;31.55;;;20.40;;
78646;SDS011;67961;43.460;3.762;2023-03-23T07:37:02;26.48;;;19.17;;
78646;SDS011;67961;43.460;3.762;2023-03-23T07:39:28;29.10;;;19.27;;
78646;SDS011;67961;43.460;3.762;2023-03-23T07:41:54;26.45;;;19.08;;
78646;SDS011;67961;43.460;3.762;2023-03-23T07:44:20;24.65;;;18.65;;
78646;SDS011;67961;43.460;3.762;2023-03-23T07:46:45;26.02;;;18.50;;
78646;SDS011;67961;43.460;3.762;2023-03-23T07:49:12;23.63;;;17.70;;
78646;SDS011;67961;43.460;3.762;2023-03-23T07:51:37;26.02;;;18.48;;
78646;SDS011;67961;43.460;3.762;2023-03-23T07:54:04;23.38;;;16.58;;
78646;SDS011;67961;43.460;3.762;2023-03-23T07:56:32;26.30;;;18.85;;
78646;SDS011;67961;43.460;3.762;2023-03-23T07:58:58;25.23;;;17.92;;
78646;SDS011;67961;43.460;3.762;2023-03-23T08:01:24;24.38;;;17.20;;
78646;SDS011;67961;43.460;3.762;2023-03-23T08:03:50;25.15;;;18.75;;
78646;SDS011;67961;43.460;3.762;2023-03-23T08:06:17;27.13;;;18.88;;
78646;SDS011;67961;43.460;3.762;2023-03-23T08:08:43;23.58;;;17.38;;
78646;SDS011;67961;43.460;3.762;2023-03-23T08:11:08;23.88;;;18.40;;
78646;SDS011;67961;43.460;3.762;2023-03-23T08:13:34;23.45;;;16.50;;
78646;SDS011;67961;43.460;3.762;2023-03-23T08:16:00;20.75;;;17.27;;
78646;SDS011;67961;43.460;3.762;2023-03-23T08:18:30;22.17;;;17.40;;
78646;SDS011;67961;43.460;3.762;2023-03-23T08:20:56;24.02;;;16.23;;
78646;SDS011;67961;43.460;3.762;2023-03-23T08:23:22;20.02;;;15.07;;
78646;SDS011;67961;43.460;3.762;2023-03-23T08:25:48;28.45;;;16.85;;
78646;SDS011;67961;43.460;3.762;2023-03-23T08:28:14;21.67;;;16.25;;
78646;SDS011;67961;43.460;3.762;2023-03-23T08:30:40;24.98;;;17.45;;
78646;SDS011;67961;43.460;3.762;2023-03-23T08:33:06;21.27;;;16.17;;
78646;SDS011;67961;43.460;3.762;2023-03-23T08:35:32;20.60;;;14.63;;
78646;SDS011;67961;43.460;3.762;2023-03-23T08:37:58;21.50;;;15.75;;
78646;SDS011;67961;43.460;3.762;2023-03-23T08:40:24;20.92;;;15.95;;
78646;SDS011;67961;43.460;3.762;2023-03-23T08:42:51;19.40;;;14.70;;
78646;SDS011;67961;43.460;3.762;2023-03-23T08:45:18;18.92;;;16.17;;
78646;SDS011;67961;43.460;3.762;2023-03-23T08:47:46;23.35;;;16.92;;
78646;SDS011;67961;43.460;3.762;2023-03-23T08:50:18;21.17;;;15.52;;
78646;SDS011;67961;43.460;3.762;2023-03-23T08:52:47;23.75;;;14.45;;
78646;SDS011;67961;43.460;3.762;2023-03-23T08:55:14;21.25;;;12.77;;
78646;SDS011;67961;43.460;3.762;2023-03-23T08:57:42;18.45;;;12.40;;
78646;SDS011;67961;43.460;3.762;2023-03-23T09:00:10;19.05;;;12.40;;
78646;SDS011;67961;43.460;3.762;2023-03-23T09:02:43;20.92;;;13.40;;
78646;SDS011;67961;43.460;3.762;2023-03-23T09:05:13;15.85;;;11.90;;
78646;SDS011;67961;43.460;3.762;2023-03-23T09:07:45;17.50;;;11.38;;
78646;SDS011;67961;43.460;3.762;2023-03-23T09:10:12;20.15;;;10.82;;
78646;SDS011;67961;43.460;3.762;2023-03-23T09:12:39;17.27;;;11.25;;
78646;SDS011;67961;43.460;3.762;2023-03-23T09:15:06;15.05;;;10.82;;
78646;SDS011;67961;43.460;3.762;2023-03-23T09:17:46;17.67;;;11.43;;
78646;SDS011;67961;43.460;3.762;2023-03-23T09:20:15;21.58;;;10.90;;
78646;SDS011;67961;43.460;3.762;2023-03-23T09:22:44;21.40;;;10.60;;
78646;SDS011;67961;43.460;3.762;2023-03-23T09:25:22;19.70;;;11.45;;
78646;SDS011;67961;43.460;3.762;2023-03-23T09:27:57;15.55;;;10.82;;
78646;SDS011;67961;43.460;3.762;2023-03-23T09:30:24;20.77;;;11.40;;
78646;SDS011;67961;43.460;3.762;2023-03-23T09:32:53;17.42;;;12.05;;
78646;SDS011;67961;43.460;3.762;2023-03-23T09:35:20;19.35;;;13.40;;
78646;SDS011;67961;43.460;3.762;2023-03-23T09:37:49;20.02;;;14.13;;
78646;SDS011;67961;43.460;3.762;2023-03-23T09:40:21;20.83;;;15.35;;
78646;SDS011;67961;43.460;3.762;2023-03-23T09:42:56;17.13;;;12.70;;
78646;SDS011;67961;43.460;3.762;2023-03-23T09:45:30;17.15;;;12.90;;
78646;SDS011;67961;43.460;3.762;2023-03-23T09:51:16;17.25;;;13.25;;
78646;SDS011;67961;43.460;3.762;2023-03-23T09:54:00;18.25;;;13.82;;
78646;SDS011;67961;43.460;3.762;2023-03-23T09:56:30;17.03;;;13.10;;
78646;SDS011;67961;43.460;3.762;2023-03-23T10:04:07;20.40;;;11.27;;
78646;SDS011;67961;43.460;3.762;2023-03-23T10:06:47;15.02;;;11.48;;
78646;SDS011;67961;43.460;3.762;2023-03-23T10:09:14;17.27;;;11.80;;
78646;SDS011;67961;43.460;3.762;2023-03-23T10:11:50;15.57;;;11.57;;
78646;SDS011;67961;43.460;3.762;2023-03-23T10:17:26;18.65;;;11.73;;
78646;SDS011;67961;43.460;3.762;2023-03-23T10:22:33;15.68;;;10.02;;
78646;SDS011;67961;43.460;3.762;2023-03-23T10:27:55;22.52;;;9.90;;
78646;SDS011;67961;43.460;3.762;2023-03-23T10:30:53;16.05;;;10.35;;
78646;SDS011;67961;43.460;3.762;2023-03-23T10:33:33;14.48;;;10.07;;
78646;SDS011;67961;43.460;3.762;2023-03-23T10:38:36;13.52;;;7.65;;
78646;SDS011;67961;43.460;3.762;2023-03-23T10:41:15;13.70;;;8.23;;
78646;SDS011;67961;43.460;3.762;2023-03-23T10:43:43;15.20;;;8.05;;
78646;SDS011;67961;43.460;3.762;2023-03-23T10:48:41;14.18;;;6.82;;
78646;SDS011;67961;43.460;3.762;2023-03-23T10:51:10;13.70;;;6.55;;
78646;SDS011;67961;43.460;3.762;2023-03-23T10:53:44;18.00;;;6.18;;
78646;SDS011;67961;43.460;3.762;2023-03-23T10:56:24;15.40;;;7.10;;
78646;SDS011;67961;43.460;3.762;2023-03-23T10:58:52;10.98;;;5.53;;
78646;SDS011;67961;43.460;3.762;2023-03-23T11:01:19;11.32;;;4.72;;
78646;SDS011;67961;43.460;3.762;2023-03-23T11:03:53;9.50;;;4.13;;
78646;SDS011;67961;43.460;3.762;2023-03-23T11:08:58;10.40;;;4.10;;
78646;SDS011;67961;43.460;3.762;2023-03-23T11:11:39;13.85;;;4.13;;
78646;SDS011;67961;43.460;3.762;2023-03-23T11:16:57;11.17;;;4.37;;
78646;SDS011;67961;43.460;3.762;2023-03-23T11:24:42;11.90;;;3.95;;
78646;SDS011;67961;43.460;3.762;2023-03-23T11:27:10;10.73;;;3.55;;
78646;SDS011;67961;43.460;3.762;2023-03-23T11:29:41;11.02;;;3.42;;
78646;SDS011;67961;43.460;3.762;2023-03-23T11:32:31;10.25;;;3.25;;
78646;SDS011;67961;43.460;3.762;2023-03-23T11:34:58;8.50;;;3.08;;
78646;SDS011;67961;43.460;3.762;2023-03-23T11:37:33;13.05;;;3.40;;
78646;SDS011;67961;43.460;3.762;2023-03-23T11:45:14;13.48;;;3.85;;
78646;SDS011;67961;43.460;3.762;2023-03-23T11:50:52;13.80;;;3.55;;
78646;SDS011;67961;43.460;3.762;2023-03-23T11:58:23;12.48;;;3.45;;
78646;SDS011;67961;43.460;3.762;2023-03-23T12:00:56;13.43;;;3.92;;
78646;SDS011;67961;43.460;3.762;2023-03-23T12:07:09;10.10;;;2.92;;
78646;SDS011;67961;43.460;3.762;2023-03-23T12:09:43;12.23;;;3.22;;
78646;SDS011;67961;43.460;3.762;2023-03-23T12:12:16;10.00;;;3.30;;
78646;SDS011;67961;43.460;3.762;2023-03-23T12:15:13;13.75;;;4.25;;
78646;SDS011;67961;43.460;3.762;2023-03-23T12:23:33;10.75;;;2.90;;
78646;SDS011;67961;43.460;3.762;2023-03-23T12:28:28;10.60;;;3.50;;
78646;SDS011;67961;43.460;3.762;2023-03-23T12:31:09;16.33;;;4.05;;
78646;SDS011;67961;43.460;3.762;2023-03-23T12:41:55;10.60;;;3.38;;
78646;SDS011;67961;43.460;3.762;2023-03-23T12:44:49;12.50;;;3.30;;
78646;SDS011;67961;43.460;3.762;2023-03-23T12:47:36;10.50;;;3.92;;
78646;SDS011;67961;43.460;3.762;2023-03-23T12:53:12;10.27;;;3.15;;
78646;SDS011;67961;43.460;3.762;2023-03-23T12:58:18;12.73;;;3.90;;
78646;SDS011;67961;43.460;3.762;2023-03-23T13:03:42;14.68;;;4.28;;
78646;SDS011;67961;43.460;3.762;2023-03-23T13:08:58;16.10;;;4.85;;
78646;SDS011;67961;43.460;3.762;2023-03-23T13:11:37;18.50;;;4.63;;
78646;SDS011;67961;43.460;3.762;2023-03-23T13:14:17;12.45;;;4.18;;
78646;SDS011;67961;43.460;3.762;2023-03-23T13:22:53;27.85;;;10.82;;
78646;SDS011;67961;43.460;3.762;2023-03-23T13:28:13;25.63;;;13.98;;
78646;SDS011;67961;43.460;3.762;2023-03-23T13:31:10;21.48;;;15.10;;
78646;SDS011;67961;43.460;3.762;2023-03-23T13:33:38;22.77;;;16.20;;
78646;SDS011;67961;43.460;3.762;2023-03-23T13:36:11;28.90;;;16.30;;
78646;SDS011;67961;43.460;3.762;2023-03-23T13:38:39;28.52;;;15.85;;
78646;SDS011;67961;43.460;3.762;2023-03-23T13:41:13;29.85;;;16.98;;
78646;SDS011;67961;43.460;3.762;2023-03-23T13:43:41;26.35;;;15.93;;
78646;SDS011;67961;43.460;3.762;2023-03-23T13:46:30;30.65;;;15.68;;
78646;SDS011;67961;43.460;3.762;2023-03-23T14:01:53;22.35;;;11.35;;
78646;SDS011;67961;43.460;3.762;2023-03-23T14:04:20;21.45;;;12.57;;
78646;SDS011;67961;43.460;3.762;2023-03-23T14:06:48;20.33;;;12.13;;
78646;SDS011;67961;43.460;3.762;2023-03-23T14:09:19;19.20;;;11.23;;
78646;SDS011;67961;43.460;3.762;2023-03-23T14:12:04;23.83;;;11.70;;
78646;SDS011;67961;43.460;3.762;2023-03-23T14:14:42;34.60;;;13.60;;
78646;SDS011;67961;43.460;3.762;2023-03-23T14:17:15;20.40;;;10.68;;
78646;SDS011;67961;43.460;3.762;2023-03-23T14:19:51;21.40;;;10.95;;
78646;SDS011;67961;43.460;3.762;2023-03-23T14:27:30;25.10;;;13.45;;
78646;SDS011;67961;43.460;3.762;2023-03-23T14:29:59;26.17;;;13.90;;
78646;SDS011;67961;43.460;3.762;2023-03-23T14:32:32;23.85;;;12.63;;
78646;SDS011;67961;43.460;3.762;2023-03-23T14:34:59;22.70;;;12.05;;
78646;SDS011;67961;43.460;3.762;2023-03-23T14:37:33;24.42;;;11.98;;
78646;SDS011;67961;43.460;3.762;2023-03-23T14:40:00;23.40;;;12.00;;
78646;SDS011;67961;43.460;3.762;2023-03-23T14:42:32;21.80;;;11.98;;
78646;SDS011;67961;43.460;3.762;2023-03-23T14:44:59;17.13;;;10.95;;
78646;SDS011;67961;43.460;3.762;2023-03-23T14:47:30;23.38;;;12.18;;
78646;SDS011;67961;43.460;3.762;2023-03-23T14:49:59;24.85;;;11.48;;
78646;SDS011;67961;43.460;3.762;2023-03-23T14:52:29;22.15;;;11.50;;
78646;SDS011;67961;43.460;3.762;2023-03-23T14:55:11;24.92;;;15.02;;
78646;SDS011;67961;43.460;3.762;2023-03-23T14:57:40;24.17;;;12.35;;
78646;SDS011;67961;43.460;3.762;2023-03-23T15:00:11;23.13;;;12.38;;
78646;SDS011;67961;43.460;3.762;2023-03-23T15:02:44;20.38;;;11.95;;
78646;SDS011;67961;43.460;3.762;2023-03-23T15:05:17;18.23;;;11.43;;
78646;SDS011;67961;43.460;3.762;2023-03-23T15:07:53;26.58;;;13.27;;
78646;SDS011;67961;43.460;3.762;2023-03-23T15:10:23;23.02;;;12.43;;
78646;SDS011;67961;43.460;3.762;2023-03-23T15:12:50;23.58;;;12.02;;
78646;SDS011;67961;43.460;3.762;2023-03-23T15:15:25;24.15;;;12.93;;
78646;SDS011;67961;43.460;3.762;2023-03-23T15:17:51;27.15;;;12.30;;
78646;SDS011;67961;43.460;3.762;2023-03-23T15:20:25;21.52;;;12.13;;
78646;SDS011;67961;43.460;3.762;2023-03-23T15:22:51;25.42;;;13.07;;
78646;SDS011;67961;43.460;3.762;2023-03-23T15:25:22;22.55;;;13.13;;
78646;SDS011;67961;43.460;3.762;2023-03-23T15:28:17;22.67;;;12.65;;
78646;SDS011;67961;43.460;3.762;2023-03-23T15:30:53;18.27;;;11.52;;
78646;SDS011;67961;43.460;3.762;2023-03-23T15:33:23;23.88;;;12.93;;
78646;SDS011;67961;43.460;3.762;2023-03-23T15:35:53;25.05;;;11.82;;
78646;SDS011;67961;43.460;3.762;2023-03-23T15:38:21;19.08;;;11.48;;
78646;SDS011;67961;43.460;3.762;2023-03-23T15:40:52;20.45;;;12.68;;
78646;SDS011;67961;43.460;3.762;2023-03-23T15:48:21;23.38;;;11.95;;
78646;SDS011;67961;43.460;3.762;2023-03-23T15:50:48;22.17;;;11.85;;
78646;SDS011;67961;43.460;3.762;2023-03-23T15:53:36;29.00;;;12.48;;
78646;SDS011;67961;43.460;3.762;2023-03-23T15:56:03;27.70;;;11.70;;
78646;SDS011;67961;43.460;3.762;2023-03-23T15:58:31;26.40;;;12.77;;
78646;SDS011;67961;43.460;3.762;2023-03-23T16:00:57;24.02;;;10.98;;
78646;SDS011;67961;43.460;3.762;2023-03-23T16:03:26;23.15;;;10.52;;
78646;SDS011;67961;43.460;3.762;2023-03-23T16:05:56;20.80;;;11.50;;
78646;SDS011;67961;43.460;3.762;2023-03-23T16:08:24;19.90;;;9.70;;
78646;SDS011;67961;43.460;3.762;2023-03-23T16:10:50;15.65;;;9.15;;
78646;SDS011;67961;43.460;3.762;2023-03-23T16:13:16;15.48;;;8.65;;
78646;SDS011;67961;43.460;3.762;2023-03-23T16:15:42;15.18;;;6.30;;
78646;SDS011;67961;43.460;3.762;2023-03-23T16:18:18;15.32;;;5.50;;
78646;SDS011;67961;43.460;3.762;2023-03-23T16:20:47;15.63;;;5.78;;
78646;SDS011;67961;43.460;3.762;2023-03-23T16:23:14;14.13;;;5.03;;
78646;SDS011;67961;43.460;3.762;2023-03-23T16:25:40;14.80;;;4.28;;
78646;SDS011;67961;43.460;3.762;2023-03-23T16:28:08;11.20;;;3.83;;
78646;SDS011;67961;43.460;3.762;2023-03-23T16:30:37;12.32;;;3.80;;
78646;SDS011;67961;43.460;3.762;2023-03-23T16:33:04;10.85;;;3.67;;
78646;SDS011;67961;43.460;3.762;2023-03-23T16:35:30;16.08;;;4.75;;
78646;SDS011;67961;43.460;3.762;2023-03-23T16:37:56;10.57;;;4.10;;
78646;SDS011;67961;43.460;3.762;2023-03-23T16:40:22;17.15;;;5.20;;
78646;SDS011;67961;43.460;3.762;2023-03-23T16:42:49;11.88;;;4.72;;
78646;SDS011;67961;43.460;3.762;2023-03-23T16:45:15;13.82;;;4.38;;
78646;SDS011;67961;43.460;3.762;2023-03-23T16:47:42;13.43;;;3.88;;
78646;SDS011;67961;43.460;3.762;2023-03-23T16:50:09;16.55;;;3.75;;
78646;SDS011;67961;43.460;3.762;2023-03-23T16:52:40;13.30;;;3.20;;
78646;SDS011;67961;43.460;3.762;2023-03-23T16:55:08;15.25;;;4.45;;
78646;SDS011;67961;43.460;3.762;2023-03-23T16:57:35;13.10;;;3.67;;
78646;SDS011;67961;43.460;3.762;2023-03-23T17:00:15;14.10;;;4.22;;
78646;SDS011;67961;43.460;3.762;2023-03-23T17:02:47;14.82;;;3.95;;